Tiempo atmosférico en la estación meteorológica de Piornal, Cáceres (1175 m.)



Fecha
DESCASC
Temp. máxima en grados centígrados (hora)
DESCASC
Temp. mínima en grados centígrados (hora)
DESCASC
Temp. media en grados centígrados
DESCASC
Racha de viento máxima en m/sg (hora)
DESCASC
Velocidad máxima media en intervalos de 10 minutos(hora)
DESCASC
Precipitaciones diarias en mm
DESCASC
Precipitaciones de 00:00 a 06:00 en mm
DESCASC
Precipitaciones de 06:00 a 12:00 en mm
DESCASC
Precipitaciones de 12:00 a 18:00 en mm
DESCASC
Precipitaciones de 18:00 a 24:00 en mm
DESCASC
05-04-2020 10.3 (15:00) 5.6 (09:00) 8 12.78 (13:20) 6.94 (11:30) 15.6 0 0 1.4 14.2
04-04-2020 12.3 (16:10) 4.9 (07:50) 8.6 13.89 (13:50) 7.22 (12:40) 0 0 0 0 0
03-04-2020 12.2 (17:00) 3.6 (07:50) 7.9 7.22 (15:40) 3.33 (18:20) 0 0 0 0 0
02-04-2020 10.7 (18:00) 0.8 (00:00) 5.7 9.44 (20:20) 5 (20:20) 0 0 0 0 0
01-04-2020 7.7 (16:20) 1 (00:00) 4.3 8.06 (00:20) 4.17 (00:20) 1 1 0 0 0
31-03-2020 3.7 (19:10) -2.1 (-00:0) 0.8 12.5 (13:30) 6.94 (13:30) 8.8 0.2 0 7.4 1.2
30-03-2020 7.5 (00:00) -1.6 (-00:0) 2.9 10.28 (18:30) 5.28 (19:40) 2.4 0 0.2 1.4 0.8
29-03-2020 14.5 (16:30) 3.5 (00:00) 9 6.39 (17:40) 3.89 (17:40) 0 0 0 0 0
28-03-2020 9.3 (15:20) 0.1 (00:00) 4.7 14.17 (10:20) 7.78 (10:40) 0 0 0 0 0
27-03-2020 5.2 (17:10) 1.1 (00:00) 3.1 12.78 (10:20) 6.94 (10:30) 0 0 0 0 0
26-03-2020 14.4 (13:30) 4.9 (00:00) 9.6 15.83 (01:10) 10 (01:20) 0.2 0 0.2 0 0
25-03-2020 12.9 (14:10) 4 (00:00) 8.4 8.61 (20:40) 4.17 (02:00) 4.4 0 0 1 3.4
24-03-2020 10.5 (15:00) 4.4 (00:00) 7.5 17.22 (11:40) 8.06 (12:10) 0 0 0 0 0
23-03-2020 7.7 (17:00) 3.6 (00:00) 5.6 16.67 (21:00) 6.94 (21:00) 11.2 0 0 11.2 0
22-03-2020 9.3 (13:40) 1.3 (07:40) 5.3 8.33 (01:40) 4.44 (00:20) 10.4 0 0 10.4 0
21-03-2020 5.1 (00:00) 0.5 (00:00) 2.8 14.72 (01:20) 6.67 (00:10) 50.4 26 23.8 0.6 0
20-03-2020 7 (00:00) 4.6 (00:00) 5.8 16.11 (22:50) 6.67 (21:30) 17.8 0 0.8 3.4 13.6
19-03-2020 8.1 (14:50) 5.5 (00:00) 6.8 13.33 (03:30) 7.78 (06:00) 0 0 0 0 0
18-03-2020 10.4 (15:40) 5.2 (00:00) 7.8 16.67 (09:40) 8.89 (09:20) 0 0 0 0 0
17-03-2020 9.3 (18:40) -0.8 (-00:0) 4.3 16.39 (16:00) 8.06 (12:10) 8.8 0 3.8 5 0
16-03-2020 0.8 (00:40) -1.9 (-00:0) -0.5 16.11 (02:10) 10 (12:40) 5.8 0 0 4.8 1
15-03-2020 14.4 (11:20) 0.5 (00:00) 7.4 11.39 (23:59) 6.11 (17:30) 0 0 0 0 0
14-03-2020 17.5 (15:40) 8.8 (00:00) 13.2 5.83 (13:30) 2.78 (10:00) 0 0 0 0 0
13-03-2020 16.6 (11:40) 9.8 (07:00) 13.2 7.78 (20:40) 3.61 (19:50) 0 0 0 0 0
12-03-2020 19.4 (16:20) 12 (00:00) 15.7 8.33 (11:50) 4.72 (11:30) 0 0 0 0 0
11-03-2020 22.6 (13:10) 11.7 (00:00) 17.2 5.28 (23:30) 2.5 (23:50) 0 0 0 0 0
10-03-2020 21.6 (13:10) 7.5 (00:00) 14.6 5.56 (16:10) 3.33 (16:10) 0 0 0 0 0
09-03-2020 17 (15:10) 5.6 (00:00) 11.3 15 (03:50) 8.06 (04:00) 0 0 0 0 0
08-03-2020 13.9 (12:50) 2.2 (00:00) 8 11.11 (23:20) 6.94 (23:20) 0 0 0 0 0

Gráficas

Temp. máximas Temp. mínimas Temp. medias Precipitaciones Rachas de viento máximas Velocidades máximas media en intervalos de 10 minutos

Datos horarios

Fecha y hora oficial Temperatura (ºC) Velocidad del viento (km/h) Dirección del viento Racha (km/h) Dirección de racha Precipitación (mm) Presión (hPa) Tendencia (hPa) Humedad (%)
2020-04-06 23:00:00 8.2 6 Sudeste 19 Sudeste 0 -- -- 97
2020-04-06 22:00:00 8.4 6 Sudeste 16 Sur 0.2 -- -- 98
2020-04-06 21:00:00 8.5 5 Sudeste 17 Sur 0 -- -- 96
2020-04-06 20:00:00 9 8 Sur 26 Sur 0 -- -- 96
2020-04-06 19:00:00 9.6 8 Sudeste 23 Sur 0.2 -- -- 96
2020-04-06 18:00:00 9.9 8 Sudeste 22 Sudeste 0 -- -- 90
2020-04-06 17:00:00 10.8 6 Sudeste 22 Sudoeste 0 -- -- 87
2020-04-06 16:00:00 11 10 Sur 21 Sudeste 0 -- -- 85
2020-04-06 15:00:00 10.1 6 Sur 20 Sur 0 -- -- 90
2020-04-06 14:00:00 8.7 11 Este 23 Nordeste 0.2 -- -- 96
2020-04-06 13:00:00 9.8 5 Sudeste 18 Este 0 -- -- 88
2020-04-06 12:00:00 9.3 6 Este 15 Sudeste 0 -- -- 93
2020-04-06 11:00:00 8 6 Este 12 Este 0 -- -- 97
2020-04-06 10:00:00 7.3 5 Este 12 Este 0 -- -- 100
2020-04-06 09:00:00 7.2 2 Sudeste 15 Sur 0 -- -- 100
2020-04-06 08:00:00 7.1 5 Sur 14 Sur 0 -- -- 100
2020-04-06 07:00:00 7.5 5 Sur 13 Sudoeste 0 -- -- 100
2020-04-06 06:00:00 7.6 6 Sur 20 Sur 0 -- -- 100
2020-04-06 05:00:00 8 7 Sur 19 Sur 0 -- -- 100
2020-04-06 04:00:00 8.2 8 Sur 24 Sur 0 -- -- 100
2020-04-06 03:00:00 8.6 8 Sur 26 Sudeste 0 -- -- 100
2020-04-06 02:00:00 8.7 10 Sur 30 Sur 0.2 -- -- 100
2020-04-06 01:00:00 9.1 14 Sur 36 Sur 3 -- -- 100
2020-04-06 00:00:00 9.2 17 Sur 39 Sur 2.2 -- -- 100
2020-04-05 23:00:00 8.9 14 Sudeste 44 Sudeste 2.4 -- -- 100
2020-04-05 22:00:00 9.1 14 Sudeste 33 Sudeste 2.6 -- -- 100
2020-04-05 21:00:00 8.9 13 Sudeste 35 Sudeste 4.2 -- -- 100
2020-04-05 20:00:00 8.6 12 Este 32 Este 1.4 -- -- 99
2020-04-05 19:00:00 8.5 11 Este 31 Este 1.4 -- -- 99
2020-04-05 18:00:00 8.7 18 Este 32 Este 0.8 -- -- 96
2020-04-05 17:00:00 8.6 18 Este 34 Este 0.4 -- -- 94
2020-04-05 16:00:00 9 17 Este 36 Este 0.2 -- -- 88
2020-04-05 15:00:00 10.3 23 Este 39 Este 0 -- -- 77
2020-04-05 14:00:00 9.2 22 Este 46 Este 0 -- -- 83
2020-04-05 13:00:00 8.5 22 Este 41 Este 0 -- -- 86
2020-04-05 12:00:00 7.1 24 Este 45 Este 0 -- -- 92
2020-04-05 11:00:00 6.3 24 Este 42 Este 0 -- -- 96
2020-04-05 10:00:00 5.7 19 Este 40 Este 0 -- -- 99
2020-04-05 09:00:00 5.6 22 Este 37 Este 0 -- -- 97
2020-04-05 08:00:00 6.2 22 Este 43 Este 0 -- -- 90
2020-04-05 07:00:00 6.2 17 Este 29 Sudeste 0 -- -- 91
2020-04-05 06:00:00 6 15 Este 27 Este 0 -- -- 91
2020-04-05 05:00:00 6.2 14 Este 26 Este 0 -- -- 91
2020-04-05 04:00:00 6 15 Este 28 Este 0 -- -- 92
2020-04-05 03:00:00 5.9 10 Este 24 Este 0 -- -- 94
2020-04-05 02:00:00 6 10 Este 22 Este 0 -- -- 93
2020-04-05 01:00:00 6.3 9 Sudeste 21 Este 0 -- -- 87
2020-04-05 00:00:00 6.3 6 Sudeste 21 Sur 0 -- -- 84
2020-04-04 23:00:00 6.6 12 Sudeste 32 Sur 0 -- -- 79
2020-04-04 22:00:00 7.5 13 Sudeste 28 Sudeste 0 -- -- 77
2020-04-04 21:00:00 8.7 12 Sudeste 32 Este 0 -- -- 67
2020-04-04 20:00:00 10.2 13 Este 27 Sudeste 0 -- -- 67
2020-04-04 19:00:00 10.3 12 Sudeste 30 Este 0 -- -- 64
2020-04-04 18:00:00 10.3 17 Este 33 Este 0 -- -- 63
2020-04-04 17:00:00 10.6 15 Este 39 Este 0 -- -- 56
2020-04-04 16:00:00 12.2 17 Este 42 Este 0 -- -- 50
2020-04-04 15:00:00 11.5 17 Este 46 Este 0 -- -- 53
2020-04-04 14:00:00 10.7 23 Este 50 Este 0 -- -- 59
2020-04-04 13:00:00 10.2 23 Este 47 Este 0 -- -- 72
2020-04-04 12:00:00 8.9 23 Este 45 Este 0 -- -- 73
2020-04-04 11:00:00 7.5 18 Este 40 Este 0 -- -- 73
2020-04-04 10:00:00 6.8 20 Este 43 Este 0 -- -- 73
2020-04-04 09:00:00 5.7 19 Este 49 Este 0 -- -- 73
2020-04-04 08:00:00 4.9 20 Este 34 Este 0 -- -- 73
2020-04-04 07:00:00 6.1 17 Este 40 Nordeste 0 -- -- 64
2020-04-04 06:00:00 6.4 12 Este 37 Nordeste 0 -- -- 64
2020-04-04 05:00:00 6.3 10 Este 28 Este 0 -- -- 63
2020-04-04 04:00:00 6.3 10 Este 30 Este 0 -- -- 63
2020-04-04 03:00:00 6.5 11 Este 24 Nordeste 0 -- -- 61
2020-04-04 02:00:00 6 5 Este 17 Este 0 -- -- 66
2020-04-04 01:00:00 5.3 5 Este 10 Este 0 -- -- 76
2020-04-04 00:00:00 6 6 Este 12 Este 0 -- -- 78
2020-04-03 23:00:00 6.4 5 Este 12 Este 0 -- -- 75
2020-04-03 22:00:00 7.3 6 Este 11 Nordeste 0 -- -- 69
2020-04-03 21:00:00 8 6 Este 18 Este 0 -- -- 62
2020-04-03 20:00:00 9.9 11 Este 20 Este 0 -- -- 52
2020-04-03 19:00:00 10.9 11 Este 21 Este 0 -- -- 55
2020-04-03 18:00:00 11.6 9 Este 20 Este 0 -- -- 56
2020-04-03 17:00:00 12.2 9 Este 22 Este 0 -- -- 56
2020-04-03 16:00:00 12 9 Este 26 Nordeste 0 -- -- 59
2020-04-03 15:00:00 11.4 8 Este 24 Este 0 -- -- 58
2020-04-03 14:00:00 11.5 10 Este 22 Nordeste 0 -- -- 59
2020-04-03 13:00:00 10.7 7 Este 19 Este 0 -- -- 55
2020-04-03 12:00:00 9.8 8 Este 15 Este 0 -- -- 58
2020-04-03 11:00:00 9 6 Este 12 Este 0 -- -- 58
2020-04-03 10:00:00 7.6 3 Este 9 Este 0 -- -- 67
2020-04-03 09:00:00 5 3 Este 8 Este 0 -- -- 76
2020-04-03 08:00:00 3.7 5 Este 8 Este 0 -- -- 80
2020-04-03 07:00:00 4.2 4 Nordeste 11 Nordeste 0 -- -- 78
2020-04-03 06:00:00 4.4 4 Nordeste 9 Nordeste 0 -- -- 77
2020-04-03 05:00:00 4.2 4 Este 8 Este 0 -- -- 79
2020-04-03 04:00:00 4.3 0 Calma 8 Este 0 -- -- 77
2020-04-03 03:00:00 4.1 3 Este 8 Sudeste 0 -- -- 78
2020-04-03 02:00:00 4.4 0 Calma 6 Nordeste 0 -- -- 74
2020-04-03 01:00:00 6 5 Nordeste 23 Norte 0 -- -- 66
2020-04-03 00:00:00 5.4 10 Norte 23 Nordeste 0 -- -- 73
2020-04-02 23:00:00 5.9 8 Nordeste 30 Nordeste 0 -- -- 70
2020-04-02 22:00:00 6.8 14 Norte 27 Norte 0 -- -- 66
2020-04-02 21:00:00 7.2 10 Norte 34 Norte 0 -- -- 68
2020-04-02 20:00:00 8.5 14 Norte 27 Noroeste 0 -- -- 65
2020-04-02 19:00:00 10.4 14 Norte 25 Norte 0 -- -- 59
2020-04-02 18:00:00 10.7 5 Sudeste 19 Nordeste 0 -- -- 62
2020-04-02 17:00:00 10.2 8 Oeste 19 Oeste 0 -- -- 64
2020-04-02 16:00:00 9.7 6 Sudoeste 18 Sudoeste 0 -- -- 65
2020-04-02 15:00:00 8.7 7 Sur 17 Sudeste 0 -- -- 69
2020-04-02 14:00:00 9.7 7 Sur 28 Oeste 0 -- -- 66
2020-04-02 13:00:00 8.8 8 Noroeste 22 Norte 0 -- -- 55
2020-04-02 12:00:00 8.9 4 Norte 14 Nordeste 0 -- -- 57
2020-04-02 11:00:00 7.4 7 Nordeste 21 Nordeste 0 -- -- 64
2020-04-02 10:00:00 5.7 6 Norte 14 Norte 0 -- -- 66
2020-04-02 09:00:00 2.9 4 Nordeste 15 Norte 0 -- -- 77
2020-04-02 08:00:00 0.8 4 Norte 11 Norte 0 -- -- 84
2020-04-02 07:00:00 1.5 4 Nordeste 14 Nordeste 0 -- -- 91
2020-04-02 06:00:00 2.1 7 Este 13 Este 0 -- -- 89
2020-04-02 05:00:00 1.3 5 Este 11 Nordeste 0 -- -- 91
2020-04-02 04:00:00 2.5 3 Nordeste 7 Este 0 -- -- 87
2020-04-02 03:00:00 2.8 3 Nordeste 7 Este 0 -- -- 89
2020-04-02 02:00:00 2.1 3 Sudeste 9 Este 0 -- -- 92
2020-04-02 01:00:00 1.9 6 Este 12 Este 0 -- -- 93
2020-04-02 00:00:00 2.1 6 Este 10 Este 0 -- -- 91
2020-04-01 23:00:00 2.6 8 Este 17 Sudeste 0 -- -- 88
2020-04-01 22:00:00 2.7 7 Este 18 Este 0 -- -- 88
2020-04-01 21:00:00 3.3 8 Este 20 Este 0 -- -- 84
2020-04-01 20:00:00 4.4 13 Este 22 Este 0 -- -- 78
2020-04-01 19:00:00 6.4 12 Este 21 Este 0 -- -- 71
2020-04-01 18:00:00 6.2 5 Este 18 Sudeste 0 -- -- 73
2020-04-01 17:00:00 7.1 9 Sudeste 21 Sudeste 0 -- -- 66
2020-04-01 16:00:00 7 8 Sur 22 Sur 0 -- -- 74
2020-04-01 15:00:00 4.4 8 Este 18 Este 0 -- -- 80
2020-04-01 14:00:00 4.2 10 Este 22 Este 0 -- -- 82
2020-04-01 13:00:00 3.9 10 Este 23 Este 0 -- -- 89
2020-04-01 12:00:00 2.5 6 Este 19 Sudeste 0 -- -- 99
2020-04-01 11:00:00 1.9 6 Sudeste 17 Este 0 -- -- 100
2020-04-01 10:00:00 1.3 10 Este 21 Este 0 -- -- 100
2020-04-01 09:00:00 1.1 7 Sudeste 19 Este 0 -- -- 100
2020-04-01 08:00:00 1.1 10 Este 22 Este 0 -- -- 100
2020-04-01 07:00:00 1.1 10 Este 22 Este 0 -- -- 100
2020-04-01 06:00:00 1.3 13 Este 22 Este 0 -- -- 100
2020-04-01 05:00:00 1.2 8 Sudeste 19 Sudeste 0 -- -- 100
2020-04-01 04:00:00 1.7 6 Sudeste 19 Este 0 -- -- 100
2020-04-01 03:00:00 2.2 8 Sudeste 18 Sudeste 0 -- -- 100
2020-04-01 02:00:00 2.8 9 Sudeste 24 Sudeste 0.4 -- -- 100
2020-04-01 01:00:00 2.9 14 Este 29 Este 0.6 -- -- 100
2020-04-01 00:00:00 3 13 Este 30 Este 0 -- -- 100
2020-03-31 23:00:00 2.9 12 Este 27 Este 0 -- -- 100
2020-03-31 22:00:00 3.1 17 Este 31 Este 0 -- -- 100
2020-03-31 21:00:00 3.2 17 Este 31 Este 0.2 -- -- 100
2020-03-31 20:00:00 3.4 13 Este 32 Este 0.2 -- -- 100
2020-03-31 19:00:00 3.5 15 Este 26 Este 0.8 -- -- 100
2020-03-31 18:00:00 3.4 14 Este 29 Este 0.2 -- -- 100
2020-03-31 17:00:00 3 14 Este 30 Este 0 -- -- 100
2020-03-31 16:00:00 2.4 17 Este 35 Este 0.8 -- -- 100
2020-03-31 15:00:00 2 20 Este 37 Nordeste 2.8 -- -- 100
2020-03-31 14:00:00 1 21 Este 45 Este 2.8 -- -- 100
2020-03-31 13:00:00 0.5 23 Este 39 Este 0.8 -- -- 100
2020-03-31 12:00:00 0 0 Calma -- -- 0 -- -- 100
2020-03-31 11:00:00 -0.4 0 Calma -- -- 0 -- -- 100
2020-03-31 10:00:00 -0.8 0 Calma -- -- 0 -- -- 100
2020-03-31 09:00:00 -1.5 0 Calma -- -- 0 -- -- 100
2020-03-31 08:00:00 -1.8 0 Calma -- -- 0 -- -- 100
2020-03-31 07:00:00 -1.9 0 Calma -- -- 0 -- -- 100
2020-03-31 06:00:00 -1.4 0 Calma -- -- 0 -- -- 100
2020-03-31 05:00:00 -2 0 Calma -- -- 0 -- -- 100
2020-03-31 04:00:00 -1.3 0 Calma -- -- 0 -- -- 100
2020-03-31 03:00:00 -1.9 0 Calma -- -- 0 -- -- 100
2020-03-31 02:00:00 -1.9 0 Calma -- -- 0.2 -- -- 100
2020-03-31 01:00:00 -1.8 0 Calma -- -- 0 -- -- 100
2020-03-31 00:00:00 -1.6 0 Calma -- -- 0 -- -- 100
2020-03-30 23:00:00 -1.4 0 Calma -- -- 0 -- -- 100
2020-03-30 22:00:00 -1 0 Calma 31 Este 0 -- -- 100
2020-03-30 21:00:00 -0.3 18 Este 34 Este 0 -- -- 100
2020-03-30 20:00:00 0 17 Este 36 Nordeste 0.2 -- -- 100
2020-03-30 19:00:00 0.5 19 Este 37 Nordeste 0.6 -- -- 100
2020-03-30 18:00:00 1 17 Este 35 Este 1.2 -- -- 100
2020-03-30 17:00:00 2.7 15 Este 33 Este 0.2 -- -- 98
2020-03-30 16:00:00 3.7 13 Este 26 Este 0 -- -- 93
2020-03-30 15:00:00 4.2 12 Este 27 Nordeste 0 -- -- 92
2020-03-30 14:00:00 4.5 14 Este 28 Este 0 -- -- 92
2020-03-30 13:00:00 4.9 12 Este 27 Nordeste 0 -- -- 93
2020-03-30 12:00:00 5.6 12 Este 25 Este 0 -- -- 90
2020-03-30 11:00:00 3.9 13 Este 24 Este 0.2 -- -- 96
2020-03-30 10:00:00 4.8 13 Este 28 Este 0 -- -- 92
2020-03-30 09:00:00 4.6 13 Este 29 Este 0 -- -- 96
2020-03-30 08:00:00 4.7 13 Este 29 Nordeste 0 -- -- 92
2020-03-30 07:00:00 5.9 9 Este 20 Este 0 -- -- 79
2020-03-30 06:00:00 6 4 Norte 10 Norte 0 -- -- 73
2020-03-30 05:00:00 6.6 4 Noroeste 12 Noroeste 0 -- -- 71
2020-03-30 04:00:00 6.8 6 Norte 13 Norte 0 -- -- 71
2020-03-30 03:00:00 6.6 6 Noroeste 12 Norte 0 -- -- 71
2020-03-30 02:00:00 6.6 3 Norte 10 Norte 0 -- -- 68
2020-03-30 01:00:00 6.8 5 Norte 9 Oeste 0 -- -- 67
2020-03-30 00:00:00 7.5 7 Oeste 10 Oeste 0 -- -- 64
2020-03-29 23:00:00 7.8 5 Sudoeste 10 Oeste 0 -- -- 65
2020-03-29 22:00:00 8 4 Sudoeste 14 Sudoeste 0 -- -- 64
2020-03-29 21:00:00 8.4 9 Sudoeste 19 Sudoeste 0 -- -- 65
2020-03-29 20:00:00 10.2 13 Sudoeste 22 Sudoeste 0 -- -- 60
2020-03-29 19:00:00 11.1 10 Sudoeste 22 Sur 0 -- -- 53
2020-03-29 18:00:00 12.1 9 Sudoeste 23 Sudoeste 0 -- -- 51
2020-03-29 17:00:00 13.9 8 Sudoeste 22 Sudoeste 0 -- -- 45
2020-03-29 16:00:00 13.9 7 Sur 19 Sur 0 -- -- 45
2020-03-29 15:00:00 11.3 5 Sur 15 Sur 0 -- -- 48
2020-03-29 14:00:00 12 9 Sudeste 21 Sudoeste 0 -- -- 50
2020-03-29 13:00:00 12.5 5 Oeste 15 Oeste 0 -- -- 47
2020-03-29 12:00:00 12.4 6 Oeste 12 Oeste 0 -- -- 45
2020-03-29 11:00:00 10.2 5 Oeste 9 Oeste 0 -- -- 48
2020-03-29 10:00:00 7.9 3 Norte 6 Norte 0 -- -- 50
2020-03-29 09:00:00 4.1 0 Calma -- -- 0 -- -- 59
2020-03-29 08:00:00 3.8 0 Calma -- -- 0 -- -- 57
2020-03-29 07:00:00 3.9 2 Nordeste 5 Este 0 -- -- 57
2020-03-29 06:00:00 3.9 4 Este 6 Este 0 -- -- 61
2020-03-29 05:00:00 4 5 Este 8 Este 0 -- -- 62
2020-03-29 03:00:00 3.8 5 Este 10 Este 0 -- -- 63
2020-03-29 01:00:00 4 5 Este 13 Este 0 -- -- 63
2020-03-29 00:00:00 4.5 6 Este 13 Este 0 -- -- 58
2020-03-28 23:00:00 4.9 8 Este 14 Este 0 -- -- 57
2020-03-28 22:00:00 5.5 8 Este 16 Este 0 -- -- 54
2020-03-28 21:00:00 5.4 8 Este 14 Este 0 -- -- 53
2020-03-28 20:00:00 6.2 6 Este 16 Nordeste 0 -- -- 52
2020-03-28 19:00:00 7.3 9 Este 24 Nordeste 0 -- -- 50
2020-03-28 18:00:00 8.2 12 Este 26 Este 0 -- -- 46
2020-03-28 17:00:00 8.9 13 Este 34 Este 0 -- -- 46
2020-03-28 16:00:00 9.2 18 Este 39 Este 0 -- -- 44
2020-03-28 15:00:00 9.1 20 Este 41 Este 0 -- -- 42
2020-03-28 14:00:00 8.4 18 Este 36 Este 0 -- -- 60
2020-03-28 13:00:00 7.6 20 Este 40 Este 0 -- -- 70
2020-03-28 12:00:00 5.3 24 Este 42 Este 0 -- -- 77
2020-03-28 11:00:00 4.7 26 Este 51 Este 0 -- -- 73
2020-03-28 10:00:00 3 26 Este 46 Nordeste 0 -- -- 78
2020-03-28 09:00:00 2.2 22 Este 46 Este 0 -- -- 79
2020-03-28 08:00:00 0.5 23 Este 44 Este 0 -- -- 90
2020-03-28 07:00:00 0.1 19 Este 40 Este 0 -- -- 92
2020-03-28 06:00:00 0.4 22 Este 41 Este 0 -- -- 92
2020-03-28 05:00:00 0.4 23 Este 37 Este 0 -- -- 94
2020-03-28 04:00:00 0.6 21 Este 39 Nordeste 0 -- -- 94
2020-03-28 03:00:00 0.7 18 Este 30 Este 0 -- -- 94
2020-03-28 02:00:00 0.9 10 Este 27 Este 0 -- -- 96
2020-03-28 01:00:00 1 13 Este 28 Nordeste 0 -- -- 90
2020-03-28 00:00:00 1.3 13 Este 32 Este 0 -- -- 85
2020-03-27 23:00:00 1.4 13 Este 27 Este 0 -- -- 81
2020-03-27 22:00:00 1.5 8 Nordeste 20 Nordeste 0 -- -- 79
2020-03-27 21:00:00 1.9 7 Nordeste 30 Este 0 -- -- 76
2020-03-27 20:00:00 2.4 15 Este 32 Este 0 -- -- 75
2020-03-27 19:00:00 3.6 17 Este 30 Este 0 -- -- 76
2020-03-27 18:00:00 4.5 13 Este 33 Este 0 -- -- 74
2020-03-27 17:00:00 5.1 18 Este 33 Este 0 -- -- 69
2020-03-27 16:00:00 4.6 17 Este 35 Nordeste 0 -- -- 73
2020-03-27 15:00:00 1.7 17 Este 33 Este 0 -- -- 89
2020-03-27 14:00:00 1.3 14 Este 36 Este 0 -- -- 90
2020-03-27 13:00:00 2 16 Este 36 Este 0 -- -- 83
2020-03-27 12:00:00 2.1 17 Este 39 Nordeste 0 -- -- 81
2020-03-27 11:00:00 1.9 22 Este 46 Este 0 -- -- 80
2020-03-27 10:00:00 1.2 22 Este 45 Este 0 -- -- 80
2020-03-27 09:00:00 1.9 23 Este 40 Este 0 -- -- 70
2020-03-27 08:00:00 1.3 16 Este 37 Este 0 -- -- 70
2020-03-27 07:00:00 1.1 15 Este 30 Este 0 -- -- 71
2020-03-27 06:00:00 2.2 13 Este 26 Este 0 -- -- 63
2020-03-27 05:00:00 2.4 13 Este 26 Este 0 -- -- 65
2020-03-27 04:00:00 2.7 12 Este 25 Este 0 -- -- 65
2020-03-27 03:00:00 3.1 12 Este 31 Este 0 -- -- 63
2020-03-27 02:00:00 4.2 11 Este 26 Este 0 -- -- 59
2020-03-27 01:00:00 4.5 10 Este 22 Este 0 -- -- 57
2020-03-27 00:00:00 5 10 Este 24 Este 0 -- -- 56
2020-03-26 23:00:00 5.7 5 Norte 18 Norte 0 -- -- 49
2020-03-26 22:00:00 6 2 Nordeste 19 Noroeste 0 -- -- 61
2020-03-26 21:00:00 6.8 0 Calma 18 Oeste 0 -- -- 57
2020-03-26 20:00:00 8.2 10 Noroeste 27 Noroeste 0 -- -- 57
2020-03-26 19:00:00 10.1 15 Noroeste 30 Noroeste 0 -- -- 52
2020-03-26 18:00:00 11.6 18 Noroeste 36 Noroeste 0 -- -- 45
2020-03-26 17:00:00 13.1 14 Noroeste 36 Oeste 0 -- -- 39
2020-03-26 16:00:00 14 16 Noroeste 36 Noroeste 0 -- -- 41
2020-03-26 15:00:00 14.1 22 Noroeste 35 Noroeste 0 -- -- 36
2020-03-26 14:00:00 14.2 18 Noroeste 35 Noroeste 0 -- -- 32
2020-03-26 13:00:00 14.3 16 Noroeste 27 Noroeste 0 -- -- 32
2020-03-26 12:00:00 12.3 12 Norte 24 Norte 0 -- -- 28
2020-03-26 11:00:00 11.6 15 Noroeste 30 Norte 0 -- -- 30
2020-03-26 10:00:00 9.6 14 Norte 31 Norte 0 -- -- 31
2020-03-26 09:00:00 7.2 10 Norte 24 Noroeste 0 -- -- 32
2020-03-26 08:00:00 5.1 6 Norte 34 Norte 0.2 -- -- 38
2020-03-26 07:00:00 5.4 19 Norte 37 Norte 0 -- -- 36
2020-03-26 06:00:00 5.7 21 Noroeste 33 Noroeste 0 -- -- 38
2020-03-26 05:00:00 5.7 7 Norte 37 Noroeste 0 -- -- 35
2020-03-26 04:00:00 5.7 20 Norte 38 Norte 0 -- -- 51
2020-03-26 03:00:00 5.6 22 Norte 42 Norte 0 -- -- 67
2020-03-26 02:00:00 6.1 24 Noroeste 57 Norte 0 -- -- 74
2020-03-26 01:00:00 6.8 33 Noroeste 54 Noroeste 0 -- -- 82
2020-03-26 00:00:00 7.3 10 Oeste 18 Oeste 0 -- -- 91
2020-03-25 23:00:00 7.7 5 Oeste 28 Oeste 0 -- -- 90
2020-03-25 22:00:00 7.2 8 Sudoeste 17 Nordeste 1.2 -- -- 93
2020-03-25 21:00:00 7.6 10 Norte 31 Sudoeste 2 -- -- 88
2020-03-25 20:00:00 8.9 12 Oeste 24 Sudoeste 0 -- -- 86
2020-03-25 19:00:00 9.6 10 Sudoeste 24 Sudoeste 0.2 -- -- 87
2020-03-25 18:00:00 10.3 14 Sudoeste 28 Sudoeste 0.4 -- -- 86
2020-03-25 17:00:00 9.9 10 Sudoeste 24 Sudoeste 0.4 -- -- 82
2020-03-25 16:00:00 10.4 7 Sudoeste 20 Noroeste 0.2 -- -- 84
2020-03-25 15:00:00 12.7 10 Noroeste 27 Oeste 0 -- -- 66
2020-03-25 14:00:00 12.5 12 Noroeste 24 Noroeste 0 -- -- 67
2020-03-25 13:00:00 11.8 8 Noroeste 21 Noroeste 0 -- -- 66
2020-03-25 12:00:00 10.8 8 Oeste 19 Oeste 0 -- -- 72
2020-03-25 11:00:00 8.5 8 Oeste 17 Oeste 0 -- -- 82
2020-03-25 10:00:00 6.7 5 Oeste 11 Oeste 0 -- -- 87
2020-03-25 09:00:00 5.9 3 Sudoeste 8 Sudoeste 0 -- -- 91
2020-03-25 08:00:00 4.8 0 Calma 6 Oeste 0 -- -- 95
2020-03-25 07:00:00 4 0 Calma 10 Este 0 -- -- 92
2020-03-25 06:00:00 4.2 5 Este 13 Este 0 -- -- 92
2020-03-25 05:00:00 4.2 7 Este 20 Este 0 -- -- 91
2020-03-25 04:00:00 4.4 11 Este 24 Este 0 -- -- 92
2020-03-25 03:00:00 4.4 13 Este 27 Este 0 -- -- 93
2020-03-25 02:00:00 4.6 15 Este 29 Nordeste 0 -- -- 95
2020-03-25 01:00:00 5.3 11 Este 27 Nordeste 0 -- -- 93
2020-03-25 00:00:00 5.9 8 Nordeste 27 Este 0 -- -- 91
2020-03-24 23:00:00 6 13 Nordeste 26 Este 0 -- -- 89
2020-03-24 22:00:00 6.2 11 Este 22 Este 0 -- -- 88
2020-03-24 21:00:00 6.4 11 Este 22 Este 0 -- -- 87
2020-03-24 20:00:00 7 12 Este 23 Este 0 -- -- 86
2020-03-24 19:00:00 7.7 14 Este 25 Este 0 -- -- 80
2020-03-24 18:00:00 8.1 13 Este 30 Este 0 -- -- 84
2020-03-24 17:00:00 9.1 17 Este 33 Este 0 -- -- 76
2020-03-24 16:00:00 10 22 Este 40 Este 0 -- -- 72
2020-03-24 15:00:00 10.5 21 Este 45 Este 0 -- -- 66
2020-03-24 14:00:00 8.5 21 Este 48 Este 0 -- -- 74
2020-03-24 13:00:00 8.2 23 Este 51 Nordeste 0 -- -- 74
2020-03-24 12:00:00 7 22 Nordeste 62 Nordeste 0 -- -- 78
2020-03-24 11:00:00 6.7 27 Este 53 Este 0 -- -- 80
2020-03-24 10:00:00 5.8 20 Nordeste 40 Este 0 -- -- 86
2020-03-24 09:00:00 4.8 16 Nordeste 37 Nordeste 0 -- -- 95
2020-03-24 08:00:00 4.5 19 Este 39 Este 0 -- -- 96
2020-03-24 07:00:00 5 19 Este 47 Este 0 -- -- 92
2020-03-24 06:00:00 5.5 20 Este 42 Este 0 -- -- 87
2020-03-24 05:00:00 5.4 22 Nordeste 50 Nordeste 0 -- -- 89
2020-03-24 04:00:00 5.2 19 Nordeste 48 Nordeste 0 -- -- 94
2020-03-24 03:00:00 5.3 19 Nordeste 49 Nordeste 0 -- -- 94
2020-03-24 02:00:00 5.3 25 Este 51 Nordeste 0 -- -- 95
2020-03-24 01:00:00 5.5 24 Este 50 Este 0 -- -- 94
2020-03-24 00:00:00 5.8 25 Este 52 Sudeste 0 -- -- 93
2020-03-23 23:00:00 6 19 Este 43 Nordeste 0 -- -- 92
2020-03-23 22:00:00 5.3 17 Este 47 Este 0 -- -- 90
2020-03-23 21:00:00 5.7 25 Este 60 Este 0 -- -- 89
2020-03-23 20:00:00 6 6 Este 24 Nordeste 0 -- -- 86
2020-03-23 19:00:00 6.6 8 Este 29 Este 0 -- -- 78
2020-03-23 18:00:00 7.2 14 Este 34 Este 0.2 -- -- 77
2020-03-23 17:00:00 7.7 18 Este 36 Este 0 -- -- 78
2020-03-23 16:00:00 6.4 15 Nordeste 30 Este 0.2 -- -- 94
2020-03-23 15:00:00 4.5 14 Este 36 Este 10 -- -- 100
2020-03-23 14:00:00 6.2 11 Nordeste 27 Este 0.4 -- -- 94
2020-03-23 13:00:00 5.7 9 Nordeste 24 Nordeste 0.4 -- -- 100
2020-03-23 12:00:00 5.3 10 Este 26 Nordeste 0 -- -- 100
2020-03-23 11:00:00 4 14 Nordeste 34 Este 0 -- -- 100
2020-03-23 10:00:00 3.7 16 Este 32 Este 0 -- -- 100
2020-03-23 09:00:00 3.6 15 Nordeste 28 Nordeste 0 -- -- 100
2020-03-23 08:00:00 3.7 8 Este 18 Nordeste 0 -- -- 100
2020-03-23 07:00:00 3.7 10 Este 24 Este 0 -- -- 100
2020-03-23 06:00:00 3.7 12 Este 26 Este 0 -- -- 100
2020-03-23 05:00:00 4 9 Este 19 Este 0 -- -- 100
2020-03-23 04:00:00 4 7 Este 17 Este 0 -- -- 100
2020-03-23 03:00:00 4 5 Este 18 Este 0 -- -- 100
2020-03-23 02:00:00 3.8 7 Este 18 Este 0 -- -- 99
2020-03-23 01:00:00 4.2 3 Nordeste 13 Este 0 -- -- 97
2020-03-23 00:00:00 4.2 4 Nordeste 8 Este 0 -- -- 94
2020-03-22 23:00:00 4.8 5 Este 12 Este 0 -- -- 95
2020-03-22 22:00:00 4.8 4 Este 9 Nordeste 0 -- -- 93
2020-03-22 21:00:00 4.8 3 Norte 13 Norte 0 -- -- 97
2020-03-22 20:00:00 5.1 5 Norte 12 Norte 0 -- -- 95
2020-03-22 19:00:00 5.2 5 Nordeste 17 Este 0 -- -- 98
2020-03-22 18:00:00 5.6 7 Norte 12 Noroeste 2.6 -- -- 97
2020-03-22 17:00:00 6.8 8 Oeste 15 Oeste 0.4 -- -- 91
2020-03-22 16:00:00 6 3 Sudeste 10 Sur 6.4 -- -- 94
2020-03-22 15:00:00 7.3 4 Sudoeste 14 Sur 1 -- -- 86
2020-03-22 14:00:00 8.6 6 Sur 18 Nordeste 0 -- -- 80
2020-03-22 13:00:00 7.9 7 Este 15 Nordeste 0 -- -- 85
2020-03-22 12:00:00 7.2 3 Sur 12 Sudoeste 0 -- -- 81
2020-03-22 11:00:00 6.9 4 Oeste 13 Nordeste 0 -- -- 87
2020-03-22 10:00:00 4.4 9 Este 19 Este 0 -- -- 91
2020-03-22 09:00:00 3.4 8 Este 15 Nordeste 0 -- -- 92
2020-03-22 08:00:00 1.3 7 Este 14 Este 0 -- -- 99
2020-03-22 07:00:00 1.6 5 Nordeste 14 Nordeste 0 -- -- 99
2020-03-22 06:00:00 2.1 8 Este 15 Este 0 -- -- 100
2020-03-22 05:00:00 2.3 8 Este 21 Este 0 -- -- 100
2020-03-22 04:00:00 2.6 10 Nordeste 19 Este 0 -- -- 100
2020-03-22 03:00:00 2.7 9 Este 21 Este 0 -- -- 100
2020-03-22 02:00:00 2.9 12 Este 30 Nordeste 0 -- -- 98
2020-03-22 01:00:00 2.5 14 Este 28 Este 0 -- -- 94
2020-03-22 00:00:00 2.2 12 Este 25 Este 0 -- -- 95
2020-03-21 23:00:00 2.4 13 Este 25 Este 0 -- -- 93
2020-03-21 22:00:00 2.4 12 Este 26 Este 0 -- -- 95
2020-03-21 21:00:00 2.9 13 Este 23 Este 0 -- -- 100
2020-03-21 20:00:00 3.4 11 Este 22 Este 0 -- -- 100
2020-03-21 19:00:00 4.2 10 Este 21 Este 0 -- -- 92
2020-03-21 18:00:00 4.9 9 Este 22 Este 0 -- -- 90
2020-03-21 17:00:00 4.6 12 Este 20 Nordeste 0 -- -- 98
2020-03-21 16:00:00 3.6 9 Este 22 Este 0 -- -- 100
2020-03-21 15:00:00 3 10 Este 20 Este 0.2 -- -- 100
2020-03-21 14:00:00 2.7 9 Este 21 Este 0 -- -- 100
2020-03-21 13:00:00 2.1 12 Este 22 Este 0.4 -- -- 100
2020-03-21 12:00:00 1.1 9 Este 19 Este 1.8 -- -- 100
2020-03-21 11:00:00 1.2 9 Este 23 Nordeste 2.2 -- -- 100
2020-03-21 10:00:00 1.1 8 Este 27 Sudeste 3 -- -- 100
2020-03-21 09:00:00 1.6 9 Sur 27 Este 4.8 -- -- 100
2020-03-21 08:00:00 3.3 13 Este 36 Este 7 -- -- 100
2020-03-21 07:00:00 3.8 14 Sudeste 31 Este 5 -- -- 100
2020-03-21 06:00:00 4.2 13 Sudeste 33 Este 4.4 -- -- 100
2020-03-21 05:00:00 3.9 14 Este 38 Este 2.8 -- -- 100
2020-03-21 04:00:00 4 15 Este 34 Sudeste 4.6 -- -- 100
2020-03-21 03:00:00 4.2 16 Sudeste 46 Sudeste 7.4 -- -- 100
2020-03-21 02:00:00 4.3 21 Este 53 Sudeste 3.4 -- -- 100
2020-03-21 01:00:00 4.4 23 Este 51 Este 3.4 -- -- 100
2020-03-21 00:00:00 5.1 22 Este 50 Sudeste 0 -- -- 100
2020-03-20 23:00:00 5.5 21 Este 58 Este 0 -- -- 100
2020-03-20 22:00:00 5.7 20 Este 48 Este 2.8 -- -- 100
2020-03-20 21:00:00 5.9 19 Este 40 Sudeste 7.8 -- -- 100
2020-03-20 20:00:00 6.2 16 Sudeste 37 Sudeste 2.8 -- -- 97
2020-03-20 19:00:00 6.1 15 Este 39 Este 0.2 -- -- 100
2020-03-20 18:00:00 5.8 13 Este 39 Este 0 -- -- 100
2020-03-20 17:00:00 5.9 19 Este 41 Este 0 -- -- 100
2020-03-20 16:00:00 5.4 23 Este 41 Este 0.6 -- -- 100
2020-03-20 15:00:00 5.1 17 Este 34 Este 0.2 -- -- 100
2020-03-20 14:00:00 5.1 19 Este 38 Este 1.2 -- -- 100
2020-03-20 13:00:00 4.9 18 Este 44 Este 1.4 -- -- 100
2020-03-20 12:00:00 4.8 22 Este 47 Este 0 -- -- 100
2020-03-20 11:00:00 4.7 21 Este 37 Este 0.2 -- -- 100
2020-03-20 10:00:00 5.4 12 Este 33 Este 0.6 -- -- 100
2020-03-20 09:00:00 4.7 19 Este 40 Este 0 -- -- 100
2020-03-20 08:00:00 4.7 19 Este 35 Este 0 -- -- 100
2020-03-20 07:00:00 5 20 Este 40 Este 0 -- -- 100
2020-03-20 06:00:00 5 22 Este 37 Este 0 -- -- 100
2020-03-20 05:00:00 5 13 Este 31 Este 0 -- -- 100
2020-03-20 04:00:00 5.5 17 Este 30 Este 0 -- -- 97
2020-03-20 03:00:00 5.6 19 Este 39 Este 0 -- -- 98
2020-03-20 02:00:00 5.8 20 Este 37 Este 0 -- -- 97
2020-03-20 01:00:00 6.3 19 Este 39 Este 0 -- -- 94
2020-03-20 00:00:00 7 21 Este 39 Este 0 -- -- 87
2020-03-19 23:00:00 7.9 21 Este 42 Este 0 -- -- 78
2020-03-19 22:00:00 8.1 19 Este 37 Este 0 -- -- 77
2020-03-19 21:00:00 8 18 Este 36 Este 0 -- -- 76
2020-03-19 20:00:00 7.5 21 Este 40 Este 0 -- -- 81
2020-03-19 19:00:00 7.2 22 Este 37 Este 0 -- -- 85
2020-03-19 18:00:00 7.4 21 Este 37 Este 0 -- -- 83
2020-03-19 17:00:00 7.4 18 Este 33 Este 0 -- -- 84
2020-03-19 16:00:00 7.4 16 Este 33 Este 0 -- -- 83
2020-03-19 15:00:00 8 19 Este 35 Este 0 -- -- 81
2020-03-19 14:00:00 7.9 18 Este 33 Nordeste 0 -- -- 80
2020-03-19 13:00:00 7.7 15 Este 27 Este 0 -- -- 77
2020-03-19 12:00:00 6.9 17 Este 35 Este 0 -- -- 78
2020-03-19 11:00:00 6.4 20 Este 41 Este 0 -- -- 75
2020-03-19 10:00:00 6 21 Este 38 Este 0 -- -- 74
2020-03-19 09:00:00 5.5 18 Este 35 Este 0 -- -- 81
2020-03-19 08:00:00 6.3 18 Este 35 Este 0 -- -- 74
2020-03-19 07:00:00 6.2 20 Este 45 Este 0 -- -- 75
2020-03-19 06:00:00 6.4 28 Este 46 Nordeste 0 -- -- 70
2020-03-19 05:00:00 6.5 26 Este 46 Este 0 -- -- 76
2020-03-19 04:00:00 6.7 24 Este 48 Este 0 -- -- 85
2020-03-19 03:00:00 6.7 23 Este 45 Este 0 -- -- 83
2020-03-19 02:00:00 6.9 22 Este 42 Este 0 -- -- 87
2020-03-19 01:00:00 7.5 22 Este 45 Este 0 -- -- 90
2020-03-19 00:00:00 7.4 23 Este 46 Este 0 -- -- 88
2020-03-18 23:00:00 8 22 Este 40 Este 0 -- -- 83
2020-03-18 22:00:00 9 17 Este 34 Este 0 -- -- 69
2020-03-18 21:00:00 8.9 15 Este 36 Nordeste 0 -- -- 72
2020-03-18 20:00:00 8.6 15 Este 31 Este 0 -- -- 79
2020-03-18 19:00:00 8.9 12 Este 31 Este 0 -- -- 78
2020-03-18 18:00:00 9.2 13 Este 27 Este 0 -- -- 77
2020-03-18 17:00:00 9.9 15 Este 36 Este 0 -- -- 75
2020-03-18 16:00:00 9.9 22 Este 44 Este 0 -- -- 71
2020-03-18 15:00:00 9.8 21 Este 37 Este 0 -- -- 71
2020-03-18 14:00:00 9.3 22 Este 45 Sudeste 0 -- -- 77
2020-03-18 13:00:00 9.5 21 Este 41 Este 0 -- -- 73
2020-03-18 12:00:00 9.8 22 Este 43 Este 0 -- -- 73
2020-03-18 11:00:00 7.8 20 Este 48 Este 0 -- -- 82
2020-03-18 10:00:00 6.6 24 Este 60 Este 0 -- -- 85
2020-03-18 09:00:00 5.9 30 Este 50 Este 0 -- -- 90
2020-03-18 08:00:00 6 18 Este 48 Este 0 -- -- 87
2020-03-18 07:00:00 5.2 19 Este 36 Este 0 -- -- 98
2020-03-18 06:00:00 5.6 15 Este 41 Este 0 -- -- 96
2020-03-18 05:00:00 6 20 Este 48 Este 0 -- -- 97
2020-03-18 04:00:00 6.4 21 Este 46 Este 0 -- -- 96
2020-03-18 03:00:00 7 19 Este 40 Este 0 -- -- 95
2020-03-18 02:00:00 7.4 13 Este 35 Este 0 -- -- 90
2020-03-18 01:00:00 7.7 19 Este 48 Este 0 -- -- 90
2020-03-18 00:00:00 8.3 21 Este 44 Nordeste 0 -- -- 86
2020-03-17 23:00:00 8.4 13 Este 42 Sudeste 0 -- -- 87
2020-03-17 22:00:00 8.7 23 Este 45 Este 0 -- -- 88
2020-03-17 21:00:00 8.8 19 Este 41 Este 0 -- -- 83
2020-03-17 20:00:00 8.8 19 Este 45 Este 0 -- -- 84
2020-03-17 19:00:00 9.1 18 Este 53 Este 0 -- -- 79
2020-03-17 18:00:00 8.9 21 Este 49 Este 0 -- -- 81
2020-03-17 17:00:00 8.7 25 Este 55 Nordeste 0 -- -- 78
2020-03-17 16:00:00 7.8 27 Este 59 Este 0 -- -- 72
2020-03-17 15:00:00 7.1 24 Este 57 Este 0.2 -- -- 75
2020-03-17 14:00:00 6.1 26 Este 54 Nordeste 2.2 -- -- 80
2020-03-17 13:00:00 4.9 26 Este 49 Este 2.6 -- -- 84
2020-03-17 12:00:00 4.4 29 Este 49 Este 2.8 -- -- 88
2020-03-17 11:00:00 2.4 25 Este 50 Este 1 -- -- 100
2020-03-17 10:00:00 1.4 21 Este 42 Este 0 -- -- 100
2020-03-17 09:00:00 1.1 14 Este 35 Nordeste 0 -- -- 90
2020-03-17 08:00:00 -0.7 7 Este 21 Nordeste 0 -- -- 98
2020-03-17 07:00:00 -0.7 11 Nordeste 22 Este 0 -- -- 95
2020-03-17 06:00:00 -0.6 9 Este 22 Este 0 -- -- 90
2020-03-17 05:00:00 -0.2 10 Este 28 Este 0 -- -- 88
2020-03-17 04:00:00 -0.1 14 Este 33 Nordeste 0 -- -- 86
2020-03-17 03:00:00 -0.4 10 Nordeste 18 Este 0 -- -- 89
2020-03-17 02:00:00 -0.7 6 Nordeste 18 Nordeste 0 -- -- 91
2020-03-17 01:00:00 -0.8 6 Este 19 Este 0 -- -- 96
2020-03-17 00:00:00 -0.5 5 Nordeste 13 Norte 0 -- -- 95
2020-03-16 23:00:00 -0.5 9 Nordeste 19 Nordeste 0 -- -- 100
2020-03-16 22:00:00 -0.3 4 Este 11 Este 0.2 -- -- 100
2020-03-16 21:00:00 -0.2 3 Este 20 Nordeste 0 -- -- 100
2020-03-16 20:00:00 0 10 Nordeste 21 Nordeste 0.2 -- -- 97
2020-03-16 19:00:00 0.1 6 Nordeste 36 Nordeste 0.6 -- -- 99
2020-03-16 18:00:00 0.3 14 Norte 31 Norte 0.8 -- -- 99
2020-03-16 17:00:00 -0.3 0 Calma 44 Norte 0.6 -- -- 100
2020-03-16 16:00:00 0 23 Noroeste 44 Noroeste 1.4 -- -- 99
2020-03-16 15:00:00 -0.1 21 Noroeste 36 Noroeste 1.6 -- -- 100
2020-03-16 14:00:00 -0.8 24 Noroeste 50 Norte 0.4 -- -- 99
2020-03-16 13:00:00 -0.8 34 Noroeste 55 Noroeste 0 -- -- 99
2020-03-16 12:00:00 -0.9 27 Noroeste 46 Noroeste 0 -- -- 99
2020-03-16 11:00:00 -0.7 25 Noroeste 46 Noroeste 0 -- -- 98
2020-03-16 10:00:00 -1.2 27 Noroeste 44 Norte 0 -- -- 98
2020-03-16 09:00:00 -1.5 23 Noroeste 41 Noroeste 0 -- -- 99
2020-03-16 08:00:00 -1.8 22 Noroeste 46 Noroeste 0 -- -- 100
2020-03-16 07:00:00 -1.9 28 Noroeste 44 Noroeste 0 -- -- 100
2020-03-16 06:00:00 -1.8 25 Noroeste 51 Noroeste 0 -- -- 99
2020-03-16 05:00:00 -1.6 22 Noroeste 45 Noroeste 0 -- -- 98
2020-03-16 04:00:00 -1.2 24 Noroeste 49 Noroeste 0 -- -- 93
2020-03-16 03:00:00 -0.9 28 Noroeste 58 Noroeste 0 -- -- 86
2020-03-16 02:00:00 -0.9 25 Noroeste 53 Noroeste 0 -- -- 85
2020-03-16 01:00:00 0.7 24 Noroeste 46 Noroeste 0 -- -- 70
2020-03-16 00:00:00 0.5 20 Norte 41 Norte 0 -- -- 86
2020-03-15 23:00:00 3.3 12 Noroeste 24 Noroeste 0 -- -- 87
2020-03-15 22:00:00 4.3 13 Oeste 33 Sudoeste 0 -- -- 89
2020-03-15 21:00:00 5.5 19 Sudoeste 36 Oeste 0 -- -- 81
2020-03-15 20:00:00 6.7 20 Sudoeste 35 Sudoeste 0 -- -- 77
2020-03-15 19:00:00 9 19 Sudoeste 36 Sudoeste 0 -- -- 67
2020-03-15 18:00:00 10.5 21 Sudoeste 40 Sudoeste 0 -- -- 78
2020-03-15 17:00:00 11.2 18 Sudoeste 39 Sudoeste 0 -- -- 76
2020-03-15 16:00:00 12.7 19 Sudoeste 37 Sudoeste 0 -- -- 66
2020-03-15 15:00:00 14.1 15 Sur 34 Sur 0 -- -- 66
2020-03-15 14:00:00 13.6 11 Sur 29 Sur 0 -- -- 72
2020-03-15 13:00:00 12.4 8 Sur 20 Sur 0 -- -- 78
2020-03-15 12:00:00 13.1 10 Sur 21 Sur 0 -- -- 77
2020-03-15 11:00:00 13.6 9 Sur 21 Sur 0 -- -- 71
2020-03-15 10:00:00 12.3 7 Sur 17 Sudeste 0 -- -- 76
2020-03-15 09:00:00 9.5 4 Sur 9 Sur 0 -- -- 86
2020-03-15 08:00:00 7 4 Sudeste 8 Sudeste 0 -- -- 80
2020-03-15 07:00:00 8.3 4 Sudeste 8 Sur 0 -- -- 71
2020-03-15 06:00:00 9.1 2 Sudeste 9 Este 0 -- -- 71
2020-03-15 05:00:00 9.4 4 Este 8 Este 0 -- -- 68
2020-03-15 04:00:00 9.7 2 Sudeste 5 Sudeste 0 -- -- 65
2020-03-15 03:00:00 9.8 2 Sudeste 3 Este 0 -- -- 65
2020-03-15 02:00:00 9.7 2 Este 5 Nordeste 0 -- -- 66
2020-03-15 01:00:00 9.8 3 Nordeste 6 Oeste 0 -- -- 69
2020-03-15 00:00:00 9.4 4 Noroeste 8 Noroeste 0 -- -- 72
2020-03-14 23:00:00 9.5 4 Noroeste 6 Noroeste 0 -- -- 69
2020-03-14 22:00:00 9.7 0 Calma 3 Sudoeste 0 -- -- 68
2020-03-14 21:00:00 10.5 2 Sur 6 Sur 0 -- -- 67
2020-03-14 20:00:00 12 3 Sur 12 Sur 0 -- -- 65
2020-03-14 19:00:00 14.3 6 Sur 17 Sur 0 -- -- 59
2020-03-14 18:00:00 16.1 8 Sudoeste 18 Sudoeste 0 -- -- 54
2020-03-14 17:00:00 16.9 7 Sudoeste 15 Sudoeste 0 -- -- 52
2020-03-14 16:00:00 16.1 3 Nordeste 15 Sudoeste 0 -- -- 56
2020-03-14 15:00:00 16.3 5 Sur 16 Sudeste 0 -- -- 58
2020-03-14 14:00:00 16.2 5 Nordeste 21 Este 0 -- -- 50
2020-03-14 13:00:00 16.7 5 Noroeste 15 Nordeste 0 -- -- 59
2020-03-14 12:00:00 15.9 5 Oeste 11 Oeste 0 -- -- 61
2020-03-14 11:00:00 13.4 6 Este 19 Este 0 -- -- 67
2020-03-14 10:00:00 12 10 Este 18 Este 0 -- -- 69
2020-03-14 09:00:00 11 6 Este 14 Nordeste 0 -- -- 74
2020-03-14 08:00:00 9.2 8 Este 14 Este 0 -- -- 76
2020-03-14 07:00:00 9.3 8 Este 16 Este 0 -- -- 74
2020-03-14 06:00:00 9.2 7 Este 14 Este 0 -- -- 74
2020-03-14 05:00:00 9.2 4 Nordeste 6 Norte 0 -- -- 77
2020-03-14 04:00:00 9.3 5 Norte 13 Este 0 -- -- 82
2020-03-14 03:00:00 9.6 7 Este 13 Este 0 -- -- 72
2020-03-14 02:00:00 9.3 3 Norte 6 Norte 0 -- -- 70
2020-03-14 01:00:00 9.8 0 Calma 6 Norte 0 -- -- 66
2020-03-14 00:00:00 10.6 0 Calma 5 Noroeste 0 -- -- 67
2020-03-13 23:00:00 11 3 Nordeste 7 Norte 0 -- -- 68
2020-03-13 22:00:00 10.7 5 Nordeste 20 Norte 0 -- -- 67
2020-03-13 21:00:00 10.7 8 Norte 28 Norte 0 -- -- 73
2020-03-13 20:00:00 11.4 11 Norte 23 Noroeste 0 -- -- 73
2020-03-13 19:00:00 13.4 9 Norte 21 Noroeste 0 -- -- 66
2020-03-13 18:00:00 15 10 Noroeste 21 Noroeste 0 -- -- 62
2020-03-13 17:00:00 16.1 9 Oeste 16 Sudoeste 0 -- -- 63
2020-03-13 16:00:00 14.4 8 Sudoeste 15 Oeste 0 -- -- 77
2020-03-13 15:00:00 14.2 3 Noroeste 10 Sur 0 -- -- 79
2020-03-13 14:00:00 14.6 5 Sudoeste 12 Sudoeste 0 -- -- 78
2020-03-13 13:00:00 16 5 Sudoeste 15 Este 0 -- -- 72
2020-03-13 12:00:00 16.1 7 Este 14 Este 0 -- -- 67
2020-03-13 11:00:00 15.2 5 Este 10 Este 0 -- -- 62
2020-03-13 10:00:00 14 4 Nordeste 8 Este 0 -- -- 65
2020-03-13 09:00:00 12.2 3 Nordeste 7 Nordeste 0 -- -- 72
2020-03-13 08:00:00 10.1 3 Nordeste 6 Nordeste 0 -- -- 74
2020-03-13 07:00:00 9.8 3 Este 5 Este 0 -- -- 70
2020-03-13 06:00:00 10 0 Calma 4 Noroeste 0 -- -- 72
2020-03-13 05:00:00 10.6 2 Este 4 Sudeste 0 -- -- 68
2020-03-13 04:00:00 10.9 2 Sudeste 5 Sudeste 0 -- -- 69
2020-03-13 03:00:00 10.6 3 Sudeste 6 Sudeste 0 -- -- 67
2020-03-13 02:00:00 10.9 3 Este 6 Este 0 -- -- 61
2020-03-13 01:00:00 11.4 -- -- -- -- 0 -- -- 60
2020-03-13 00:00:00 12.1 0 Calma -- -- 0 -- -- 66
2020-03-12 23:00:00 12.1 0 Calma 2 Norte 0 -- -- 69
2020-03-12 22:00:00 12.4 0 Calma 3 Noroeste 0 -- -- 65
2020-03-12 21:00:00 13 2 Sur 5 Este 0 -- -- 62
2020-03-12 20:00:00 13.5 2 Este 7 Nordeste 0 -- -- 62
2020-03-12 19:00:00 15.4 0 Calma 15 Sur 0 -- -- 53
2020-03-12 18:00:00 16.9 7 Sur 17 Sudeste 0 -- -- 52
2020-03-12 17:00:00 19 7 Sudeste 19 Sudeste 0 -- -- 40
2020-03-12 16:00:00 18.9 10 Este 24 Este 0 -- -- 36
2020-03-12 15:00:00 17.6 13 Este 27 Nordeste 0 -- -- 41
2020-03-12 14:00:00 18 12 Este 23 Este 0 -- -- 42
2020-03-12 13:00:00 17.9 14 Este 26 Este 0 -- -- 47
2020-03-12 12:00:00 17.7 15 Este 30 Este 0 -- -- 44
2020-03-12 11:00:00 16.7 12 Este 26 Sudeste 0 -- -- 47
2020-03-12 10:00:00 16.6 13 Este 27 Este 0 -- -- 48
2020-03-12 09:00:00 14.6 12 Este 23 Este 0 -- -- 56
2020-03-12 08:00:00 12.6 13 Este 24 Este 0 -- -- 59
2020-03-12 07:00:00 12.9 14 Este 22 Este 0 -- -- 54
2020-03-12 06:00:00 13.1 12 Este 26 Este 0 -- -- 51
2020-03-12 05:00:00 13.5 11 Este 20 Sudeste 0 -- -- 40
2020-03-12 04:00:00 14.4 11 Este 27 Sudeste 0 -- -- 42
2020-03-12 03:00:00 14.2 12 Este 20 Este 0 -- -- 43
2020-03-12 02:00:00 13.8 12 Este 21 Este 0 -- -- 38
2020-03-12 01:00:00 14.1 9 Este 20 Este 0 -- -- 38
2020-03-12 00:00:00 14.1 9 Este 19 Sudeste 0 -- -- 38
2020-03-11 23:00:00 14.3 4 Sudeste 12 Sudeste 0 -- -- 37
2020-03-11 22:00:00 14.2 4 Sudeste 9 Sudeste 0 -- -- 39
2020-03-11 21:00:00 15.2 3 Sudeste 7 Sudeste 0 -- -- 35
2020-03-11 20:00:00 15.1 3 Sudeste 6 Sudeste 0 -- -- 39
2020-03-11 19:00:00 17 2 Sudeste 9 Sudeste 0 -- -- 38
2020-03-11 18:00:00 18.6 4 Sudeste 10 Sudeste 0 -- -- 34
2020-03-11 17:00:00 19.4 4 Sudeste 13 Sur 0 -- -- 37
2020-03-11 16:00:00 21.2 8 Sur 16 Sur 0 -- -- 39
2020-03-11 15:00:00 22.2 4 Sur 14 Sur 0 -- -- 35
2020-03-11 14:00:00 22.4 5 Sur 14 Sudoeste 0 -- -- 37
2020-03-11 13:00:00 22.4 7 Sur 14 Sur 0 -- -- 39
2020-03-11 12:00:00 21.4 6 Sur 12 Sur 0 -- -- 36
2020-03-11 11:00:00 20.4 5 Sur 12 Sur 0 -- -- 37
2020-03-11 10:00:00 18.5 3 Sur 6 Sudoeste 0 -- -- 41
2020-03-11 09:00:00 14.8 0 Calma 5 Noroeste 0 -- -- 58
2020-03-11 08:00:00 11.9 5 Noroeste 7 Noroeste 0 -- -- 55
2020-03-11 07:00:00 12.2 5 Noroeste 7 Noroeste 0 -- -- 53
2020-03-11 06:00:00 11.9 5 Noroeste 9 Noroeste 0 -- -- 54
2020-03-11 05:00:00 12 5 Noroeste 11 Noroeste 0 -- -- 54
2020-03-11 04:00:00 12.4 5 Noroeste 7 Noroeste 0 -- -- 54
2020-03-11 03:00:00 12.4 4 Noroeste 8 Noroeste 0 -- -- 54
2020-03-11 02:00:00 12.5 5 Noroeste 9 Noroeste 0 -- -- 56
2020-03-11 01:00:00 12.4 5 Noroeste 9 Noroeste 0 -- -- 58
2020-03-11 00:00:00 13 4 Noroeste 11 Norte 0 -- -- 58
2020-03-10 23:00:00 13 7 Noroeste 11 Noroeste 0 -- -- 60
2020-03-10 22:00:00 12.5 7 Noroeste 12 Noroeste 0 -- -- 61
2020-03-10 21:00:00 12.7 6 Noroeste 7 Noroeste 0 -- -- 61
2020-03-10 20:00:00 14.2 7 Noroeste 9 Noroeste 0 -- -- 57
2020-03-10 19:00:00 17.1 2 Sur 9 Sudoeste 0 -- -- 46
2020-03-10 18:00:00 19.1 6 Sudoeste 12 Sudoeste 0 -- -- 43
2020-03-10 17:00:00 20.1 5 Oeste 20 Sudoeste 0 -- -- 39
2020-03-10 16:00:00 19.7 11 Sudoeste 19 Sudoeste 0 -- -- 38
2020-03-10 15:00:00 19.6 8 Sudoeste 19 Sudoeste 0 -- -- 43
2020-03-10 14:00:00 20.8 8 Sudoeste 14 Oeste 0 -- -- 35
2020-03-10 13:00:00 21.5 8 Noroeste 15 Oeste 0 -- -- 31
2020-03-10 12:00:00 19.2 11 Oeste 17 Oeste 0 -- -- 37
2020-03-10 11:00:00 16 5 Oeste 13 Oeste 0 -- -- 45
2020-03-10 10:00:00 14.1 6 Oeste 9 Oeste 0 -- -- 49
2020-03-10 09:00:00 10.9 3 Norte 5 Norte 0 -- -- 62
2020-03-10 08:00:00 8.3 0 Calma 9 Sudoeste 0 -- -- 51
2020-03-10 07:00:00 8.3 2 Sudoeste 9 Sudoeste 0 -- -- 48
2020-03-10 06:00:00 7.9 2 Sudoeste 10 Sudoeste 0 -- -- 48
2020-03-10 05:00:00 7.6 2 Sur 4 Sudoeste 0 -- -- 52
2020-03-10 04:00:00 7.6 2 Sur 6 Sudoeste 0 -- -- 51
2020-03-10 03:00:00 8.5 4 Sur 12 Este 0 -- -- 51
2020-03-10 02:00:00 8.8 7 Este 17 Este 0 -- -- 53
2020-03-10 01:00:00 8.7 4 Este 15 Este 0 -- -- 53
2020-03-10 00:00:00 9.6 5 Noroeste 9 Noroeste 0 -- -- 59
2020-03-09 23:00:00 10 3 Norte 15 Este 0 -- -- 52
2020-03-09 22:00:00 11.2 8 Nordeste 25 Nordeste 0 -- -- 47
2020-03-09 21:00:00 8.7 6 Nordeste 14 Norte 0 -- -- 51
2020-03-09 20:00:00 9 7 Norte 17 Norte 0 -- -- 46
2020-03-09 19:00:00 11.4 11 Norte 23 Norte 0 -- -- 39
2020-03-09 18:00:00 14.3 12 Norte 19 Norte 0 -- -- 30
2020-03-09 17:00:00 15.7 12 Noroeste 23 Norte 0 -- -- 26
2020-03-09 16:00:00 15.7 10 Norte 25 Noroeste 0 -- -- 24
2020-03-09 15:00:00 16.9 11 Noroeste 28 Noroeste 0 -- -- 25
2020-03-09 14:00:00 16 13 Noroeste 23 Noroeste 0 -- -- 31
2020-03-09 13:00:00 16.4 14 Noroeste 29 Noroeste 0 -- -- 29
2020-03-09 12:00:00 16.1 14 Noroeste 32 Norte 0 -- -- 23
2020-03-09 11:00:00 14.1 17 Noroeste 28 Noroeste 0 -- -- 24
2020-03-09 10:00:00 11.7 19 Noroeste 37 Noroeste 0 -- -- 20
2020-03-09 09:00:00 9.6 20 Noroeste 38 Noroeste 0 -- -- 18
2020-03-09 08:00:00 8 21 Noroeste 42 Noroeste 0 -- -- 20
2020-03-09 07:00:00 7.5 21 Noroeste 36 Noroeste 0 -- -- 20
2020-03-09 06:00:00 7.5 22 Noroeste 41 Noroeste 0 -- -- 22
2020-03-09 05:00:00 6.9 23 Noroeste 48 Noroeste 0 -- -- 29
2020-03-09 04:00:00 6.6 29 Noroeste 54 Noroeste 0 -- -- 40
2020-03-09 03:00:00 5.6 25 Noroeste 40 Noroeste 0 -- -- 54
2020-03-09 02:00:00 6.2 23 Noroeste 39 Noroeste 0 -- -- 61
2020-03-09 01:00:00 5.6 22 Noroeste 37 Noroeste 0 -- -- 63
2020-03-09 00:00:00 5.9 24 Noroeste 40 Noroeste 0 -- -- 72
2020-03-08 23:00:00 5.8 22 Noroeste 35 Noroeste 0 -- -- 85
2020-03-08 22:00:00 6.1 15 Noroeste 33 Noroeste 0 -- -- 85
2020-03-08 21:00:00 6.9 19 Noroeste 28 Noroeste 0 -- -- 87
2020-03-08 20:00:00 7.7 19 Noroeste 34 Noroeste 0 -- -- 84
2020-03-08 19:00:00 8.9 21 Noroeste 32 Noroeste 0 -- -- 79
2020-03-08 18:00:00 9.7 15 Noroeste 28 Noroeste 0 -- -- 69
2020-03-08 17:00:00 9.8 10 Noroeste 23 Noroeste 0 -- -- 61
2020-03-08 16:00:00 9.9 10 Noroeste 25 Noroeste 0 -- -- 67
2020-03-08 15:00:00 12 6 Noroeste 22 Noroeste 0 -- -- 53
2020-03-08 14:00:00 13.4 8 Noroeste 17 Sudoeste 0 -- -- 43
2020-03-08 13:00:00 13.9 10 Oeste 19 Oeste 0 -- -- 28
2020-03-08 12:00:00 10.9 5 Sudoeste 14 Sudoeste 0 -- -- 37
2020-03-08 11:00:00 10.5 7 Sudoeste 14 Sudoeste 0 -- -- 41
2020-03-08 10:00:00 7.5 6 Oeste 18 Sudoeste 0 -- -- 56
2020-03-08 09:00:00 4.2 9 Sudoeste 17 Sudoeste 0 -- -- 79
2020-03-08 08:00:00 3.2 10 Sudoeste 17 Sudoeste 0 -- -- 74
2020-03-08 07:00:00 3.2 9 Oeste 16 Oeste 0 -- -- 70
2020-03-08 06:00:00 2.3 6 Oeste 11 Sudoeste 0 -- -- 88
2020-03-08 05:00:00 2.5 3 Sudoeste 7 Sudoeste 0 -- -- 89
2020-03-08 04:00:00 2.8 3 Sur 9 Sudoeste 0 -- -- 85
2020-03-08 03:00:00 3.1 3 Sur 5 Sur 0 -- -- 75
2020-03-08 02:00:00 3.6 3 Sur 8 Sudoeste 0 -- -- 59
2020-03-08 01:00:00 4.1 0 Calma 8 Noroeste 0 -- -- 56
2020-03-08 00:00:00 3.8 8 Noroeste 9 Norte 0 -- -- 66